sensor_id;sensor_type;location;lat;lon;timestamp;P1;durP1;ratioP1;P2;durP2;ratioP2
2542;SDS011;1116;51.502;7.414;2023-08-08T00:01:09;3.57;;;2.40;;
2542;SDS011;1116;51.502;7.414;2023-08-08T00:03:40;5.50;;;2.33;;
2542;SDS011;1116;51.502;7.414;2023-08-08T00:06:11;3.73;;;2.23;;
2542;SDS011;1116;51.502;7.414;2023-08-08T00:08:42;4.53;;;3.00;;
2542;SDS011;1116;51.502;7.414;2023-08-08T00:11:16;3.00;;;2.17;;
2542;SDS011;1116;51.502;7.414;2023-08-08T00:13:47;2.87;;;2.20;;
2542;SDS011;1116;51.502;7.414;2023-08-08T00:16:17;2.43;;;1.87;;
2542;SDS011;1116;51.502;7.414;2023-08-08T00:18:49;3.47;;;1.80;;
2542;SDS011;1116;51.502;7.414;2023-08-08T00:21:21;3.10;;;2.40;;
2542;SDS011;1116;51.502;7.414;2023-08-08T00:23:52;3.20;;;2.33;;
2542;SDS011;1116;51.502;7.414;2023-08-08T00:26:26;4.50;;;2.30;;
2542;SDS011;1116;51.502;7.414;2023-08-08T00:28:56;3.70;;;2.20;;
2542;SDS011;1116;51.502;7.414;2023-08-08T00:31:28;2.13;;;1.90;;
2542;SDS011;1116;51.502;7.414;2023-08-08T00:33:59;2.80;;;2.27;;
2542;SDS011;1116;51.502;7.414;2023-08-08T00:36:30;4.03;;;2.00;;
2542;SDS011;1116;51.502;7.414;2023-08-08T00:39:01;3.67;;;2.63;;
2542;SDS011;1116;51.502;7.414;2023-08-08T00:41:35;3.07;;;2.33;;
2542;SDS011;1116;51.502;7.414;2023-08-08T00:44:06;2.80;;;1.90;;
2542;SDS011;1116;51.502;7.414;2023-08-08T00:46:37;3.93;;;2.10;;
2542;SDS011;1116;51.502;7.414;2023-08-08T00:49:08;7.03;;;2.77;;
2542;SDS011;1116;51.502;7.414;2023-08-08T00:51:39;2.83;;;2.10;;
2542;SDS011;1116;51.502;7.414;2023-08-08T00:54:10;2.50;;;2.30;;
2542;SDS011;1116;51.502;7.414;2023-08-08T00:56:46;1.97;;;1.87;;
2542;SDS011;1116;51.502;7.414;2023-08-08T00:59:17;3.13;;;2.73;;
2542;SDS011;1116;51.502;7.414;2023-08-08T01:01:49;6.83;;;3.00;;
2542;SDS011;1116;51.502;7.414;2023-08-08T01:04:20;2.70;;;2.30;;
2542;SDS011;1116;51.502;7.414;2023-08-08T01:06:58;5.17;;;2.47;;
2542;SDS011;1116;51.502;7.414;2023-08-08T01:09:36;5.20;;;2.37;;
2542;SDS011;1116;51.502;7.414;2023-08-08T01:12:12;3.90;;;2.20;;
2542;SDS011;1116;51.502;7.414;2023-08-08T01:14:44;4.50;;;2.10;;
2542;SDS011;1116;51.502;7.414;2023-08-08T01:17:16;3.67;;;2.27;;
2542;SDS011;1116;51.502;7.414;2023-08-08T01:19:47;3.63;;;2.53;;
2542;SDS011;1116;51.502;7.414;2023-08-08T01:22:21;3.00;;;2.40;;
2542;SDS011;1116;51.502;7.414;2023-08-08T01:24:57;3.23;;;2.30;;
2542;SDS011;1116;51.502;7.414;2023-08-08T01:27:29;3.97;;;2.20;;
2542;SDS011;1116;51.502;7.414;2023-08-08T01:30:00;3.27;;;2.40;;
2542;SDS011;1116;51.502;7.414;2023-08-08T01:32:31;6.50;;;3.20;;
2542;SDS011;1116;51.502;7.414;2023-08-08T01:35:03;2.73;;;2.50;;
2542;SDS011;1116;51.502;7.414;2023-08-08T01:37:36;2.60;;;2.40;;
2542;SDS011;1116;51.502;7.414;2023-08-08T01:40:15;3.13;;;2.00;;
2542;SDS011;1116;51.502;7.414;2023-08-08T01:42:47;4.17;;;2.30;;
2542;SDS011;1116;51.502;7.414;2023-08-08T01:45:19;3.40;;;2.80;;
2542;SDS011;1116;51.502;7.414;2023-08-08T01:47:52;5.30;;;2.13;;
2542;SDS011;1116;51.502;7.414;2023-08-08T01:50:21;8.63;;;3.00;;
2542;SDS011;1116;51.502;7.414;2023-08-08T01:52:53;3.70;;;2.30;;
2542;SDS011;1116;51.502;7.414;2023-08-08T01:55:26;2.83;;;2.13;;
2542;SDS011;1116;51.502;7.414;2023-08-08T01:57:57;3.07;;;2.27;;
2542;SDS011;1116;51.502;7.414;2023-08-08T02:00:28;3.80;;;2.23;;
2542;SDS011;1116;51.502;7.414;2023-08-08T02:02:59;3.33;;;2.37;;
2542;SDS011;1116;51.502;7.414;2023-08-08T02:05:30;2.40;;;2.20;;
2542;SDS011;1116;51.502;7.414;2023-08-08T02:08:01;2.90;;;2.47;;
2542;SDS011;1116;51.502;7.414;2023-08-08T02:10:35;3.40;;;2.70;;
2542;SDS011;1116;51.502;7.414;2023-08-08T02:13:06;3.90;;;2.33;;
2542;SDS011;1116;51.502;7.414;2023-08-08T02:15:37;4.73;;;2.20;;
2542;SDS011;1116;51.502;7.414;2023-08-08T02:18:09;5.70;;;2.60;;
2542;SDS011;1116;51.502;7.414;2023-08-08T02:20:40;2.40;;;2.00;;
2542;SDS011;1116;51.502;7.414;2023-08-08T02:23:11;3.43;;;2.23;;
2542;SDS011;1116;51.502;7.414;2023-08-08T02:25:45;3.27;;;2.37;;
2542;SDS011;1116;51.502;7.414;2023-08-08T02:28:16;1.90;;;1.80;;
2542;SDS011;1116;51.502;7.414;2023-08-08T02:30:47;5.93;;;2.60;;
2542;SDS011;1116;51.502;7.414;2023-08-08T02:33:18;2.67;;;2.13;;
2542;SDS011;1116;51.502;7.414;2023-08-08T02:35:48;3.97;;;2.60;;
2542;SDS011;1116;51.502;7.414;2023-08-08T02:38:19;4.77;;;2.13;;
2542;SDS011;1116;51.502;7.414;2023-08-08T02:40:53;3.73;;;2.70;;
2542;SDS011;1116;51.502;7.414;2023-08-08T02:43:24;3.70;;;2.20;;
2542;SDS011;1116;51.502;7.414;2023-08-08T02:45:55;5.27;;;2.43;;
2542;SDS011;1116;51.502;7.414;2023-08-08T02:48:26;3.87;;;2.13;;
2542;SDS011;1116;51.502;7.414;2023-08-08T02:50:57;2.90;;;2.40;;
2542;SDS011;1116;51.502;7.414;2023-08-08T02:53:28;6.93;;;2.83;;
2542;SDS011;1116;51.502;7.414;2023-08-08T02:56:02;6.60;;;2.50;;
2542;SDS011;1116;51.502;7.414;2023-08-08T02:58:33;2.23;;;2.00;;
2542;SDS011;1116;51.502;7.414;2023-08-08T03:01:03;3.70;;;2.30;;
2542;SDS011;1116;51.502;7.414;2023-08-08T03:03:34;3.80;;;2.30;;
2542;SDS011;1116;51.502;7.414;2023-08-08T03:06:05;3.63;;;2.70;;
2542;SDS011;1116;51.502;7.414;2023-08-08T03:08:36;4.53;;;2.70;;
2542;SDS011;1116;51.502;7.414;2023-08-08T03:11:10;4.00;;;2.40;;
2542;SDS011;1116;51.502;7.414;2023-08-08T03:13:41;4.87;;;2.60;;
2542;SDS011;1116;51.502;7.414;2023-08-08T03:16:11;6.77;;;2.80;;
2542;SDS011;1116;51.502;7.414;2023-08-08T03:18:43;3.83;;;2.40;;
2542;SDS011;1116;51.502;7.414;2023-08-08T03:21:16;4.13;;;2.97;;
2542;SDS011;1116;51.502;7.414;2023-08-08T03:23:46;4.87;;;3.23;;
2542;SDS011;1116;51.502;7.414;2023-08-08T03:26:19;4.80;;;2.60;;
2542;SDS011;1116;51.502;7.414;2023-08-08T03:28:50;3.33;;;2.80;;
2542;SDS011;1116;51.502;7.414;2023-08-08T03:31:22;3.07;;;2.43;;
2542;SDS011;1116;51.502;7.414;2023-08-08T03:33:53;3.90;;;2.40;;
2542;SDS011;1116;51.502;7.414;2023-08-08T03:36:24;4.90;;;3.00;;
2542;SDS011;1116;51.502;7.414;2023-08-08T03:38:55;6.23;;;2.80;;
2542;SDS011;1116;51.502;7.414;2023-08-08T03:41:30;3.23;;;2.50;;
2542;SDS011;1116;51.502;7.414;2023-08-08T03:44:01;4.40;;;2.63;;
2542;SDS011;1116;51.502;7.414;2023-08-08T03:46:32;4.27;;;2.93;;
2542;SDS011;1116;51.502;7.414;2023-08-08T03:49:04;6.87;;;2.83;;
2542;SDS011;1116;51.502;7.414;2023-08-08T03:51:35;4.77;;;2.60;;
2542;SDS011;1116;51.502;7.414;2023-08-08T03:54:06;7.20;;;3.00;;
2542;SDS011;1116;51.502;7.414;2023-08-08T03:56:39;4.93;;;2.63;;
2542;SDS011;1116;51.502;7.414;2023-08-08T03:59:11;4.53;;;3.07;;
2542;SDS011;1116;51.502;7.414;2023-08-08T04:01:41;4.17;;;2.77;;
2542;SDS011;1116;51.502;7.414;2023-08-08T04:04:12;5.47;;;3.30;;
2542;SDS011;1116;51.502;7.414;2023-08-08T04:06:43;4.37;;;3.07;;
2542;SDS011;1116;51.502;7.414;2023-08-08T04:09:14;6.07;;;3.80;;
2542;SDS011;1116;51.502;7.414;2023-08-08T04:11:48;4.03;;;3.63;;
2542;SDS011;1116;51.502;7.414;2023-08-08T04:14:19;5.50;;;3.10;;
2542;SDS011;1116;51.502;7.414;2023-08-08T04:16:50;5.83;;;3.77;;
2542;SDS011;1116;51.502;7.414;2023-08-08T04:19:23;4.17;;;3.40;;
2542;SDS011;1116;51.502;7.414;2023-08-08T04:21:53;3.93;;;3.60;;
2542;SDS011;1116;51.502;7.414;2023-08-08T04:24:27;5.33;;;4.23;;
2542;SDS011;1116;51.502;7.414;2023-08-08T04:26:59;5.57;;;4.37;;
2542;SDS011;1116;51.502;7.414;2023-08-08T04:29:30;6.47;;;3.70;;
2542;SDS011;1116;51.502;7.414;2023-08-08T04:32:01;8.90;;;4.13;;
2542;SDS011;1116;51.502;7.414;2023-08-08T04:34:32;5.00;;;4.00;;
2542;SDS011;1116;51.502;7.414;2023-08-08T04:37:03;5.57;;;4.00;;
2542;SDS011;1116;51.502;7.414;2023-08-08T04:39:34;5.03;;;4.40;;
2542;SDS011;1116;51.502;7.414;2023-08-08T04:42:08;6.17;;;4.90;;
2542;SDS011;1116;51.502;7.414;2023-08-08T04:44:39;9.50;;;4.47;;
2542;SDS011;1116;51.502;7.414;2023-08-08T04:47:10;5.80;;;4.20;;
2542;SDS011;1116;51.502;7.414;2023-08-08T04:49:41;9.03;;;4.40;;
2542;SDS011;1116;51.502;7.414;2023-08-08T04:52:12;9.43;;;5.17;;
2542;SDS011;1116;51.502;7.414;2023-08-08T04:54:43;8.87;;;5.03;;
2542;SDS011;1116;51.502;7.414;2023-08-08T04:57:16;7.10;;;5.00;;
2542;SDS011;1116;51.502;7.414;2023-08-08T04:59:47;8.47;;;4.67;;
2542;SDS011;1116;51.502;7.414;2023-08-08T05:02:18;9.93;;;5.73;;
2542;SDS011;1116;51.502;7.414;2023-08-08T05:04:49;7.40;;;5.30;;
2542;SDS011;1116;51.502;7.414;2023-08-08T05:07:20;8.80;;;5.57;;
2542;SDS011;1116;51.502;7.414;2023-08-08T05:09:51;8.17;;;5.10;;
2542;SDS011;1116;51.502;7.414;2023-08-08T05:12:25;8.47;;;5.73;;
2542;SDS011;1116;51.502;7.414;2023-08-08T05:14:56;9.10;;;5.30;;
2542;SDS011;1116;51.502;7.414;2023-08-08T05:17:27;10.50;;;5.43;;
2542;SDS011;1116;51.502;7.414;2023-08-08T05:20:00;9.70;;;5.90;;
2542;SDS011;1116;51.502;7.414;2023-08-08T05:22:31;7.40;;;6.07;;
2542;SDS011;1116;51.502;7.414;2023-08-08T05:25:02;6.67;;;6.03;;
2542;SDS011;1116;51.502;7.414;2023-08-08T05:27:39;7.40;;;6.23;;
2542;SDS011;1116;51.502;7.414;2023-08-08T05:30:09;7.77;;;6.87;;
2542;SDS011;1116;51.502;7.414;2023-08-08T05:32:41;12.77;;;6.47;;
2542;SDS011;1116;51.502;7.414;2023-08-08T05:35:12;8.23;;;6.10;;
2542;SDS011;1116;51.502;7.414;2023-08-08T05:37:42;12.83;;;7.47;;
2542;SDS011;1116;51.502;7.414;2023-08-08T05:40:13;9.67;;;6.70;;
2542;SDS011;1116;51.502;7.414;2023-08-08T05:42:47;8.70;;;6.70;;
2542;SDS011;1116;51.502;7.414;2023-08-08T05:45:19;10.87;;;7.03;;
2542;SDS011;1116;51.502;7.414;2023-08-08T05:47:50;10.30;;;7.13;;
2542;SDS011;1116;51.502;7.414;2023-08-08T05:50:22;10.17;;;7.87;;
2542;SDS011;1116;51.502;7.414;2023-08-08T05:52:55;10.97;;;7.97;;
2542;SDS011;1116;51.502;7.414;2023-08-08T05:55:27;9.90;;;7.90;;
2542;SDS011;1116;51.502;7.414;2023-08-08T05:58:00;11.40;;;8.90;;
2542;SDS011;1116;51.502;7.414;2023-08-08T06:00:31;13.80;;;8.87;;
2542;SDS011;1116;51.502;7.414;2023-08-08T06:03:04;15.70;;;8.80;;
2542;SDS011;1116;51.502;7.414;2023-08-08T06:05:35;18.57;;;9.00;;
2542;SDS011;1116;51.502;7.414;2023-08-08T06:08:07;14.33;;;8.97;;
2542;SDS011;1116;51.502;7.414;2023-08-08T06:10:39;13.53;;;9.77;;
2542;SDS011;1116;51.502;7.414;2023-08-08T06:13:13;18.80;;;9.90;;
2542;SDS011;1116;51.502;7.414;2023-08-08T06:15:44;13.63;;;10.37;;
2542;SDS011;1116;51.502;7.414;2023-08-08T06:18:15;15.13;;;10.33;;
2542;SDS011;1116;51.502;7.414;2023-08-08T06:20:46;16.80;;;11.53;;
2542;SDS011;1116;51.502;7.414;2023-08-08T06:23:17;15.37;;;10.50;;
2542;SDS011;1116;51.502;7.414;2023-08-08T06:25:48;16.30;;;10.67;;
2542;SDS011;1116;51.502;7.414;2023-08-08T06:28:22;14.53;;;10.57;;
2542;SDS011;1116;51.502;7.414;2023-08-08T06:30:53;17.33;;;11.77;;
2542;SDS011;1116;51.502;7.414;2023-08-08T06:33:24;18.30;;;11.97;;
2542;SDS011;1116;51.502;7.414;2023-08-08T06:35:55;18.07;;;11.57;;
2542;SDS011;1116;51.502;7.414;2023-08-08T06:38:26;12.97;;;10.90;;
2542;SDS011;1116;51.502;7.414;2023-08-08T06:41:01;16.37;;;11.70;;
2542;SDS011;1116;51.502;7.414;2023-08-08T06:43:35;15.33;;;11.53;;
2542;SDS011;1116;51.502;7.414;2023-08-08T06:46:06;17.30;;;10.80;;
2542;SDS011;1116;51.502;7.414;2023-08-08T06:48:37;14.77;;;10.50;;
2542;SDS011;1116;51.502;7.414;2023-08-08T06:51:11;14.63;;;11.30;;
2542;SDS011;1116;51.502;7.414;2023-08-08T06:53:41;18.63;;;12.37;;
2542;SDS011;1116;51.502;7.414;2023-08-08T06:56:12;14.23;;;11.23;;
2542;SDS011;1116;51.502;7.414;2023-08-08T06:58:45;14.90;;;11.13;;
2542;SDS011;1116;51.502;7.414;2023-08-08T07:01:16;14.20;;;11.50;;
2542;SDS011;1116;51.502;7.414;2023-08-08T07:03:47;18.93;;;11.97;;
2542;SDS011;1116;51.502;7.414;2023-08-08T07:06:18;13.93;;;10.93;;
2542;SDS011;1116;51.502;7.414;2023-08-08T07:08:49;14.77;;;11.13;;
2542;SDS011;1116;51.502;7.414;2023-08-08T07:11:20;17.33;;;12.67;;
2542;SDS011;1116;51.502;7.414;2023-08-08T07:13:55;16.13;;;11.73;;
2542;SDS011;1116;51.502;7.414;2023-08-08T07:16:27;16.50;;;11.37;;
2542;SDS011;1116;51.502;7.414;2023-08-08T07:18:58;17.10;;;11.73;;
2542;SDS011;1116;51.502;7.414;2023-08-08T07:21:30;16.70;;;11.73;;
2542;SDS011;1116;51.502;7.414;2023-08-08T07:24:01;16.03;;;11.97;;
2542;SDS011;1116;51.502;7.414;2023-08-08T07:26:33;13.87;;;11.37;;
2542;SDS011;1116;51.502;7.414;2023-08-08T07:29:07;17.63;;;11.33;;
2542;SDS011;1116;51.502;7.414;2023-08-08T07:31:38;13.47;;;12.07;;
2542;SDS011;1116;51.502;7.414;2023-08-08T07:34:09;14.30;;;11.50;;
2542;SDS011;1116;51.502;7.414;2023-08-08T07:36:40;14.10;;;11.07;;
2542;SDS011;1116;51.502;7.414;2023-08-08T07:39:11;15.33;;;10.20;;
2542;SDS011;1116;51.502;7.414;2023-08-08T07:41:42;15.00;;;11.50;;
2542;SDS011;1116;51.502;7.414;2023-08-08T07:44:16;14.80;;;10.50;;
2542;SDS011;1116;51.502;7.414;2023-08-08T07:46:47;13.70;;;10.63;;
2542;SDS011;1116;51.502;7.414;2023-08-08T07:49:18;15.00;;;11.30;;
2542;SDS011;1116;51.502;7.414;2023-08-08T07:51:49;16.47;;;10.10;;
2542;SDS011;1116;51.502;7.414;2023-08-08T07:54:20;12.83;;;9.90;;
2542;SDS011;1116;51.502;7.414;2023-08-08T07:56:51;13.47;;;9.77;;
2542;SDS011;1116;51.502;7.414;2023-08-08T07:59:25;10.97;;;9.37;;
2542;SDS011;1116;51.502;7.414;2023-08-08T08:01:56;10.97;;;8.90;;
2542;SDS011;1116;51.502;7.414;2023-08-08T08:04:27;12.60;;;8.10;;
2542;SDS011;1116;51.502;7.414;2023-08-08T08:06:58;10.10;;;8.67;;
2542;SDS011;1116;51.502;7.414;2023-08-08T08:09:29;9.90;;;7.70;;
2542;SDS011;1116;51.502;7.414;2023-08-08T08:12:00;9.43;;;8.33;;
2542;SDS011;1116;51.502;7.414;2023-08-08T08:14:34;7.83;;;7.03;;
2542;SDS011;1116;51.502;7.414;2023-08-08T08:17:05;10.67;;;6.90;;
2542;SDS011;1116;51.502;7.414;2023-08-08T08:19:37;10.37;;;6.90;;
2542;SDS011;1116;51.502;7.414;2023-08-08T08:22:07;8.43;;;6.20;;
2542;SDS011;1116;51.502;7.414;2023-08-08T08:24:38;10.57;;;6.63;;
2542;SDS011;1116;51.502;7.414;2023-08-08T08:27:09;7.77;;;6.10;;
2542;SDS011;1116;51.502;7.414;2023-08-08T08:29:43;7.17;;;6.47;;
2542;SDS011;1116;51.502;7.414;2023-08-08T08:32:14;7.03;;;6.27;;
2542;SDS011;1116;51.502;7.414;2023-08-08T08:34:45;6.63;;;5.40;;
2542;SDS011;1116;51.502;7.414;2023-08-08T08:37:15;6.70;;;5.03;;
2542;SDS011;1116;51.502;7.414;2023-08-08T08:39:46;7.57;;;5.20;;
2542;SDS011;1116;51.502;7.414;2023-08-08T08:42:17;7.87;;;5.20;;
2542;SDS011;1116;51.502;7.414;2023-08-08T08:44:51;8.63;;;5.10;;
2542;SDS011;1116;51.502;7.414;2023-08-08T08:47:24;6.80;;;5.23;;
2542;SDS011;1116;51.502;7.414;2023-08-08T08:49:56;9.40;;;4.73;;
2542;SDS011;1116;51.502;7.414;2023-08-08T08:52:29;7.53;;;4.33;;
2542;SDS011;1116;51.502;7.414;2023-08-08T08:55:00;7.30;;;4.90;;
2542;SDS011;1116;51.502;7.414;2023-08-08T08:57:32;5.70;;;4.07;;
2542;SDS011;1116;51.502;7.414;2023-08-08T09:00:06;7.10;;;3.70;;
2542;SDS011;1116;51.502;7.414;2023-08-08T09:02:38;7.37;;;4.23;;
2542;SDS011;1116;51.502;7.414;2023-08-08T09:05:09;9.00;;;4.50;;
2542;SDS011;1116;51.502;7.414;2023-08-08T09:07:42;4.30;;;3.90;;
2542;SDS011;1116;51.502;7.414;2023-08-08T09:10:13;4.70;;;3.77;;
2542;SDS011;1116;51.502;7.414;2023-08-08T09:12:45;5.50;;;3.33;;
2542;SDS011;1116;51.502;7.414;2023-08-08T09:15:19;8.23;;;3.70;;
2542;SDS011;1116;51.502;7.414;2023-08-08T09:17:50;6.63;;;3.50;;
2542;SDS011;1116;51.502;7.414;2023-08-08T09:20:22;5.30;;;3.60;;
2542;SDS011;1116;51.502;7.414;2023-08-08T09:22:55;5.97;;;3.67;;
2542;SDS011;1116;51.502;7.414;2023-08-08T09:25:26;4.33;;;3.20;;
2542;SDS011;1116;51.502;7.414;2023-08-08T09:27:57;5.03;;;2.73;;
2542;SDS011;1116;51.502;7.414;2023-08-08T09:30:31;5.80;;;3.10;;
2542;SDS011;1116;51.502;7.414;2023-08-08T09:33:02;4.67;;;3.10;;
2542;SDS011;1116;51.502;7.414;2023-08-08T09:35:33;4.30;;;2.87;;
2542;SDS011;1116;51.502;7.414;2023-08-08T09:38:04;4.83;;;3.50;;
2542;SDS011;1116;51.502;7.414;2023-08-08T09:40:38;4.27;;;2.60;;
2542;SDS011;1116;51.502;7.414;2023-08-08T09:43:09;4.87;;;2.80;;
2542;SDS011;1116;51.502;7.414;2023-08-08T09:45:44;4.07;;;2.60;;
2542;SDS011;1116;51.502;7.414;2023-08-08T09:48:17;3.30;;;2.50;;
2542;SDS011;1116;51.502;7.414;2023-08-08T09:50:50;4.73;;;3.00;;
2542;SDS011;1116;51.502;7.414;2023-08-08T09:53:21;4.67;;;2.60;;
2542;SDS011;1116;51.502;7.414;2023-08-08T09:55:53;6.50;;;3.63;;
2542;SDS011;1116;51.502;7.414;2023-08-08T09:58:25;8.63;;;3.57;;
2542;SDS011;1116;51.502;7.414;2023-08-08T10:01:00;13.03;;;11.40;;
2542;SDS011;1116;51.502;7.414;2023-08-08T10:03:32;7.43;;;5.57;;
2542;SDS011;1116;51.502;7.414;2023-08-08T10:06:05;5.60;;;2.60;;
2542;SDS011;1116;51.502;7.414;2023-08-08T10:08:36;5.77;;;3.13;;
2542;SDS011;1116;51.502;7.414;2023-08-08T10:11:08;5.50;;;2.73;;
2542;SDS011;1116;51.502;7.414;2023-08-08T10:13:46;6.40;;;2.70;;
2542;SDS011;1116;51.502;7.414;2023-08-08T10:16:21;5.03;;;2.80;;
2542;SDS011;1116;51.502;7.414;2023-08-08T10:18:56;7.10;;;2.83;;
2542;SDS011;1116;51.502;7.414;2023-08-08T10:21:31;3.40;;;2.67;;
2542;SDS011;1116;51.502;7.414;2023-08-08T10:24:03;4.60;;;2.73;;
2542;SDS011;1116;51.502;7.414;2023-08-08T10:26:50;4.57;;;3.07;;
2542;SDS011;1116;51.502;7.414;2023-08-08T10:29:23;4.17;;;2.80;;
2542;SDS011;1116;51.502;7.414;2023-08-08T10:32:00;4.30;;;2.87;;
2542;SDS011;1116;51.502;7.414;2023-08-08T10:34:39;4.20;;;3.07;;
2542;SDS011;1116;51.502;7.414;2023-08-08T10:37:10;6.43;;;3.17;;
2542;SDS011;1116;51.502;7.414;2023-08-08T10:39:52;7.47;;;3.47;;
2542;SDS011;1116;51.502;7.414;2023-08-08T10:42:25;6.70;;;2.80;;
2542;SDS011;1116;51.502;7.414;2023-08-08T10:44:58;10.50;;;3.50;;
2542;SDS011;1116;51.502;7.414;2023-08-08T10:47:33;5.20;;;3.40;;
2542;SDS011;1116;51.502;7.414;2023-08-08T10:50:06;5.60;;;3.00;;
2542;SDS011;1116;51.502;7.414;2023-08-08T10:52:50;4.03;;;3.23;;
2542;SDS011;1116;51.502;7.414;2023-08-08T10:55:23;4.33;;;2.50;;
2542;SDS011;1116;51.502;7.414;2023-08-08T10:58:02;4.97;;;2.97;;
2542;SDS011;1116;51.502;7.414;2023-08-08T11:00:35;9.60;;;2.80;;
2542;SDS011;1116;51.502;7.414;2023-08-08T11:03:09;2.97;;;2.30;;
2542;SDS011;1116;51.502;7.414;2023-08-08T11:05:41;2.90;;;2.33;;
2542;SDS011;1116;51.502;7.414;2023-08-08T11:08:14;6.17;;;2.90;;
2542;SDS011;1116;51.502;7.414;2023-08-08T11:10:50;4.50;;;2.77;;
2542;SDS011;1116;51.502;7.414;2023-08-08T11:13:22;3.10;;;2.80;;
2542;SDS011;1116;51.502;7.414;2023-08-08T11:15:53;5.17;;;3.63;;
2542;SDS011;1116;51.502;7.414;2023-08-08T11:18:27;5.97;;;2.90;;
2542;SDS011;1116;51.502;7.414;2023-08-08T11:20:58;5.87;;;3.13;;
2542;SDS011;1116;51.502;7.414;2023-08-08T11:23:45;6.37;;;2.80;;
2542;SDS011;1116;51.502;7.414;2023-08-08T11:26:20;5.90;;;3.07;;
2542;SDS011;1116;51.502;7.414;2023-08-08T11:28:50;5.73;;;3.63;;
2542;SDS011;1116;51.502;7.414;2023-08-08T11:31:21;5.57;;;3.30;;
2542;SDS011;1116;51.502;7.414;2023-08-08T11:33:55;3.80;;;3.23;;
2542;SDS011;1116;51.502;7.414;2023-08-08T11:36:28;5.20;;;3.87;;
2542;SDS011;1116;51.502;7.414;2023-08-08T11:39:01;7.47;;;3.80;;
2542;SDS011;1116;51.502;7.414;2023-08-08T11:41:36;6.10;;;3.30;;
2542;SDS011;1116;51.502;7.414;2023-08-08T11:44:08;5.33;;;2.80;;
2542;SDS011;1116;51.502;7.414;2023-08-08T11:46:43;5.10;;;2.70;;
2542;SDS011;1116;51.502;7.414;2023-08-08T11:49:17;3.63;;;2.80;;
2542;SDS011;1116;51.502;7.414;2023-08-08T11:51:48;4.27;;;2.93;;
2542;SDS011;1116;51.502;7.414;2023-08-08T11:54:23;3.97;;;2.33;;
2542;SDS011;1116;51.502;7.414;2023-08-08T11:56:58;4.60;;;3.20;;
2542;SDS011;1116;51.502;7.414;2023-08-08T11:59:30;5.83;;;2.97;;
2542;SDS011;1116;51.502;7.414;2023-08-08T12:02:01;6.90;;;3.07;;
2542;SDS011;1116;51.502;7.414;2023-08-08T12:04:35;4.73;;;2.60;;
2542;SDS011;1116;51.502;7.414;2023-08-08T12:07:06;4.53;;;2.40;;
2542;SDS011;1116;51.502;7.414;2023-08-08T12:09:37;4.43;;;2.57;;
2542;SDS011;1116;51.502;7.414;2023-08-08T12:12:09;5.37;;;3.07;;
2542;SDS011;1116;51.502;7.414;2023-08-08T12:14:41;5.90;;;2.53;;
2542;SDS011;1116;51.502;7.414;2023-08-08T12:17:18;4.30;;;3.03;;
2542;SDS011;1116;51.502;7.414;2023-08-08T12:19:52;7.37;;;3.80;;
2542;SDS011;1116;51.502;7.414;2023-08-08T12:22:23;5.50;;;2.47;;
2542;SDS011;1116;51.502;7.414;2023-08-08T12:24:56;3.00;;;2.70;;
2542;SDS011;1116;51.502;7.414;2023-08-08T12:27:27;5.80;;;2.77;;
2542;SDS011;1116;51.502;7.414;2023-08-08T12:30:02;4.90;;;2.43;;
2542;SDS011;1116;51.502;7.414;2023-08-08T12:32:34;6.23;;;3.17;;
2542;SDS011;1116;51.502;7.414;2023-08-08T12:35:08;2.33;;;2.13;;
2542;SDS011;1116;51.502;7.414;2023-08-08T12:37:39;4.50;;;2.50;;
2542;SDS011;1116;51.502;7.414;2023-08-08T12:40:10;6.60;;;2.83;;
2542;SDS011;1116;51.502;7.414;2023-08-08T12:42:41;3.10;;;2.23;;
2542;SDS011;1116;51.502;7.414;2023-08-08T12:45:12;3.50;;;2.00;;
2542;SDS011;1116;51.502;7.414;2023-08-08T12:47:45;5.20;;;2.30;;
2542;SDS011;1116;51.502;7.414;2023-08-08T12:50:19;5.00;;;2.50;;
2542;SDS011;1116;51.502;7.414;2023-08-08T12:52:51;5.60;;;2.30;;
2542;SDS011;1116;51.502;7.414;2023-08-08T12:55:22;5.27;;;2.60;;
2542;SDS011;1116;51.502;7.414;2023-08-08T12:57:53;4.83;;;3.00;;
2542;SDS011;1116;51.502;7.414;2023-08-08T13:00:24;2.90;;;2.40;;
2542;SDS011;1116;51.502;7.414;2023-08-08T13:02:55;3.07;;;2.60;;
2542;SDS011;1116;51.502;7.414;2023-08-08T13:05:31;6.40;;;2.80;;
2542;SDS011;1116;51.502;7.414;2023-08-08T13:08:02;5.13;;;2.67;;
2542;SDS011;1116;51.502;7.414;2023-08-08T13:10:33;2.50;;;2.03;;
2542;SDS011;1116;51.502;7.414;2023-08-08T13:13:04;4.60;;;2.67;;
2542;SDS011;1116;51.502;7.414;2023-08-08T13:15:35;5.33;;;2.70;;
2542;SDS011;1116;51.502;7.414;2023-08-08T13:18:06;4.60;;;2.93;;
2542;SDS011;1116;51.502;7.414;2023-08-08T13:20:40;6.33;;;2.80;;
2542;SDS011;1116;51.502;7.414;2023-08-08T13:23:11;5.90;;;2.77;;
2542;SDS011;1116;51.502;7.414;2023-08-08T13:25:42;5.70;;;3.03;;
2542;SDS011;1116;51.502;7.414;2023-08-08T13:28:13;4.90;;;3.10;;
2542;SDS011;1116;51.502;7.414;2023-08-08T13:30:44;4.50;;;3.23;;
2542;SDS011;1116;51.502;7.414;2023-08-08T13:33:15;3.70;;;2.87;;
2542;SDS011;1116;51.502;7.414;2023-08-08T13:35:49;3.43;;;3.10;;
2542;SDS011;1116;51.502;7.414;2023-08-08T13:38:20;9.07;;;3.10;;
2542;SDS011;1116;51.502;7.414;2023-08-08T13:40:51;6.07;;;2.73;;
2542;SDS011;1116;51.502;7.414;2023-08-08T13:43:22;6.97;;;3.60;;
2542;SDS011;1116;51.502;7.414;2023-08-08T13:45:54;3.57;;;2.47;;
2542;SDS011;1116;51.502;7.414;2023-08-08T13:48:25;5.40;;;3.53;;
2542;SDS011;1116;51.502;7.414;2023-08-08T13:50:58;4.80;;;2.93;;
2542;SDS011;1116;51.502;7.414;2023-08-08T13:53:30;5.50;;;3.03;;
2542;SDS011;1116;51.502;7.414;2023-08-08T13:56:04;4.60;;;3.13;;
2542;SDS011;1116;51.502;7.414;2023-08-08T13:58:35;6.87;;;2.70;;
2542;SDS011;1116;51.502;7.414;2023-08-08T14:01:05;3.80;;;2.30;;
2542;SDS011;1116;51.502;7.414;2023-08-08T14:03:36;5.43;;;2.30;;
2542;SDS011;1116;51.502;7.414;2023-08-08T14:06:09;2.53;;;2.23;;
2542;SDS011;1116;51.502;7.414;2023-08-08T14:08:40;3.80;;;2.30;;
2542;SDS011;1116;51.502;7.414;2023-08-08T14:11:13;3.90;;;2.37;;
2542;SDS011;1116;51.502;7.414;2023-08-08T14:13:44;2.27;;;2.00;;
2542;SDS011;1116;51.502;7.414;2023-08-08T14:16:15;3.30;;;2.33;;
2542;SDS011;1116;51.502;7.414;2023-08-08T14:18:46;2.30;;;2.10;;
2542;SDS011;1116;51.502;7.414;2023-08-08T14:21:19;4.87;;;2.40;;
2542;SDS011;1116;51.502;7.414;2023-08-08T14:23:50;3.47;;;2.20;;
2542;SDS011;1116;51.502;7.414;2023-08-08T14:26:21;4.50;;;2.40;;
2542;SDS011;1116;51.502;7.414;2023-08-08T14:28:52;5.10;;;2.13;;
2542;SDS011;1116;51.502;7.414;2023-08-08T14:31:25;5.33;;;2.37;;
2542;SDS011;1116;51.502;7.414;2023-08-08T14:34:15;4.40;;;2.30;;
2542;SDS011;1116;51.502;7.414;2023-08-08T14:36:50;6.67;;;2.30;;
2542;SDS011;1116;51.502;7.414;2023-08-08T14:39:31;5.00;;;2.70;;
2542;SDS011;1116;51.502;7.414;2023-08-08T14:45:18;4.17;;;2.17;;
2542;SDS011;1116;51.502;7.414;2023-08-08T14:47:49;3.13;;;2.10;;
2542;SDS011;1116;51.502;7.414;2023-08-08T14:50:21;3.90;;;2.50;;
2542;SDS011;1116;51.502;7.414;2023-08-08T14:52:54;3.50;;;2.50;;
2542;SDS011;1116;51.502;7.414;2023-08-08T14:55:25;4.03;;;2.00;;
2542;SDS011;1116;51.502;7.414;2023-08-08T14:57:56;5.10;;;2.37;;
2542;SDS011;1116;51.502;7.414;2023-08-08T15:00:27;3.70;;;2.40;;
2542;SDS011;1116;51.502;7.414;2023-08-08T15:02:58;3.90;;;2.40;;
2542;SDS011;1116;51.502;7.414;2023-08-08T15:05:32;4.33;;;2.20;;
2542;SDS011;1116;51.502;7.414;2023-08-08T15:08:06;3.63;;;2.30;;
2542;SDS011;1116;51.502;7.414;2023-08-08T15:10:38;2.53;;;1.97;;
2542;SDS011;1116;51.502;7.414;2023-08-08T15:13:09;4.90;;;2.20;;
2542;SDS011;1116;51.502;7.414;2023-08-08T15:15:41;6.10;;;2.50;;
2542;SDS011;1116;51.502;7.414;2023-08-08T15:18:12;2.70;;;1.80;;
2542;SDS011;1116;51.502;7.414;2023-08-08T15:20:48;5.00;;;2.17;;
2542;SDS011;1116;51.502;7.414;2023-08-08T15:23:21;2.00;;;1.67;;
2542;SDS011;1116;51.502;7.414;2023-08-08T15:25:54;4.23;;;2.00;;
2542;SDS011;1116;51.502;7.414;2023-08-08T15:28:26;5.87;;;2.03;;
2542;SDS011;1116;51.502;7.414;2023-08-08T15:30:57;3.00;;;2.23;;
2542;SDS011;1116;51.502;7.414;2023-08-08T15:33:28;3.20;;;1.67;;
2542;SDS011;1116;51.502;7.414;2023-08-08T15:36:00;2.57;;;1.90;;
2542;SDS011;1116;51.502;7.414;2023-08-08T15:38:33;3.23;;;1.83;;
2542;SDS011;1116;51.502;7.414;2023-08-08T15:41:05;2.50;;;2.03;;
2542;SDS011;1116;51.502;7.414;2023-08-08T15:43:36;3.43;;;2.10;;
2542;SDS011;1116;51.502;7.414;2023-08-08T15:46:09;2.73;;;1.67;;